Terminal Aerodrome Forecast
Issued by NWS

Home | Current Version | Previous Version | Text Only | Print | Product List | Glossary On
Versions: 1 2 3 4 5 6 7 8 9 10 11 12 13 14 15 16 17 18 19 20 21 22 23 24 25 26 27 28 29
275
FTUS43 KBIS 250202 AAB
TAFDIK
TAF AMD
KDIK 250202Z 2502/2524 33015G25KT P6SM BKN003 OVC025
     FM250500 31025G35KT 3SM -SHRA OVC008
     FM250800 31027G37KT 6SM -SHRA OVC015
     FM251100 30023G33KT P6SM SCT045
     FM252300 31017G24KT P6SM SKC=

USA.gov is the U.S. government's official web portal to all federal, state and local government web resources and services.